sensor_id;sensor_type;location;lat;lon;timestamp;pressure;altitude;pressure_sealevel;temperature;humidity
31681;BME280;18281;51.364;9.566;2023-02-13T00:00:20;102216.19;;;3.09;100.00
31681;BME280;18281;51.364;9.566;2023-02-13T00:02:45;102219.66;;;3.11;100.00
31681;BME280;18281;51.364;9.566;2023-02-13T00:05:11;102212.72;;;3.10;100.00
31681;BME280;18281;51.364;9.566;2023-02-13T00:07:36;102206.75;;;3.16;100.00
31681;BME280;18281;51.364;9.566;2023-02-13T00:10:02;102210.22;;;3.19;100.00
31681;BME280;18281;51.364;9.566;2023-02-13T00:12:27;102213.63;;;3.14;100.00
31681;BME280;18281;51.364;9.566;2023-02-13T00:14:53;102210.09;;;3.05;100.00
31681;BME280;18281;51.364;9.566;2023-02-13T00:17:18;102208.25;;;2.97;100.00
31681;BME280;18281;51.364;9.566;2023-02-13T00:19:44;102210.97;;;3.08;100.00
31681;BME280;18281;51.364;9.566;2023-02-13T00:22:09;102212.69;;;3.07;100.00
31681;BME280;18281;51.364;9.566;2023-02-13T00:24:34;102212.72;;;3.10;100.00
31681;BME280;18281;51.364;9.566;2023-02-13T00:27:00;102214.38;;;3.02;100.00
31681;BME280;18281;51.364;9.566;2023-02-13T00:29:25;102217.91;;;3.10;100.00
31681;BME280;18281;51.364;9.566;2023-02-13T00:31:50;102206.56;;;2.99;100.00
31681;BME280;18281;51.364;9.566;2023-02-13T00:34:16;102210.09;;;3.05;100.00
31681;BME280;18281;51.364;9.566;2023-02-13T00:36:43;102212.59;;;2.98;100.00
31681;BME280;18281;51.364;9.566;2023-02-13T00:39:10;102215.09;;;2.90;100.00
31681;BME280;18281;51.364;9.566;2023-02-13T00:41:36;102213.41;;;2.92;100.00
31681;BME280;18281;51.364;9.566;2023-02-13T00:44:02;102214.34;;;2.99;100.00
31681;BME280;18281;51.364;9.566;2023-02-13T00:46:27;102204.78;;;2.95;100.00
31681;BME280;18281;51.364;9.566;2023-02-13T00:48:52;102213.50;;;3.00;100.00
31681;BME280;18281;51.364;9.566;2023-02-13T00:51:18;102212.69;;;3.07;100.00
31681;BME280;18281;51.364;9.566;2023-02-13T00:53:43;102211.88;;;3.10;100.00
31681;BME280;18281;51.364;9.566;2023-02-13T00:56:09;102211.88;;;3.10;100.00
31681;BME280;18281;51.364;9.566;2023-02-13T00:58:34;102208.41;;;3.09;100.00
31681;BME280;18281;51.364;9.566;2023-02-13T01:01:00;102212.78;;;3.13;100.00
31681;BME280;18281;51.364;9.566;2023-02-13T01:03:25;102207.41;;;2.98;100.00
31681;BME280;18281;51.364;9.566;2023-02-13T01:05:51;102214.44;;;3.05;100.00
31681;BME280;18281;51.364;9.566;2023-02-13T01:08:18;102215.31;;;3.09;100.00
31681;BME280;18281;51.364;9.566;2023-02-13T01:10:45;102211.88;;;3.10;100.00
31681;BME280;18281;51.364;9.566;2023-02-13T01:13:13;102208.38;;;3.08;100.00
31681;BME280;18281;51.364;9.566;2023-02-13T01:15:38;102208.41;;;3.09;100.00
31681;BME280;18281;51.364;9.566;2023-02-13T01:18:04;102217.81;;;3.01;100.00
31681;BME280;18281;51.364;9.566;2023-02-13T01:20:30;102213.41;;;2.92;100.00
31681;BME280;18281;51.364;9.566;2023-02-13T01:22:56;102220.44;;;3.02;100.00
31681;BME280;18281;51.364;9.566;2023-02-13T01:25:22;102217.91;;;3.07;100.00
31681;BME280;18281;51.364;9.566;2023-02-13T01:27:47;102210.97;;;3.08;100.00
31681;BME280;18281;51.364;9.566;2023-02-13T01:30:14;102212.69;;;3.07;100.00
31681;BME280;18281;51.364;9.566;2023-02-13T01:32:40;102197.97;;;3.04;100.00
31681;BME280;18281;51.364;9.566;2023-02-13T01:35:07;102208.34;;;3.03;100.00
31681;BME280;18281;51.364;9.566;2023-02-13T01:37:33;102199.38;;;2.76;100.00
31681;BME280;18281;51.364;9.566;2023-02-13T01:39:58;102207.28;;;2.85;100.00
31681;BME280;18281;51.364;9.566;2023-02-13T01:42:29;102203.03;;;2.94;100.00
31681;BME280;18281;51.364;9.566;2023-02-13T01:44:56;102199.63;;;2.98;100.00
31681;BME280;18281;51.364;9.566;2023-02-13T01:47:41;102197.94;;;3.03;100.00
31681;BME280;18281;51.364;9.566;2023-02-13T01:50:22;102198.81;;;3.03;100.00
31681;BME280;18281;51.364;9.566;2023-02-13T01:52:55;102198.78;;;3.00;100.00
31681;BME280;18281;51.364;9.566;2023-02-13T01:55:23;102199.66;;;3.01;100.00
31681;BME280;18281;51.364;9.566;2023-02-13T01:57:55;102205.72;;;3.00;100.00
31681;BME280;18281;51.364;9.566;2023-02-13T02:00:23;102200.53;;;3.00;100.00
31681;BME280;18281;51.364;9.566;2023-02-13T02:02:54;102194.47;;;3.01;100.00
31681;BME280;18281;51.364;9.566;2023-02-13T02:05:23;102192.66;;;2.94;100.00
31681;BME280;18281;51.364;9.566;2023-02-13T02:07:50;102192.63;;;2.92;100.00
31681;BME280;18281;51.364;9.566;2023-02-13T02:10:17;102182.25;;;2.92;100.00
31681;BME280;18281;51.364;9.566;2023-02-13T02:13:05;102180.53;;;2.93;100.00
31681;BME280;18281;51.364;9.566;2023-02-13T02:15:31;102187.47;;;2.95;100.00
31681;BME280;18281;51.364;9.566;2023-02-13T02:17:56;102184.00;;;2.93;100.00
31681;BME280;18281;51.364;9.566;2023-02-13T02:20:44;102188.38;;;2.96;100.00
31681;BME280;18281;51.364;9.566;2023-02-13T02:34:53;102190.88;;;2.89;100.00
31681;BME280;18281;51.364;9.566;2023-02-13T02:40:48;102181.31;;;2.84;100.00
31681;BME280;18281;51.364;9.566;2023-02-13T02:46:26;102185.66;;;2.86;100.00
31681;BME280;18281;51.364;9.566;2023-02-13T02:49:03;102183.03;;;2.85;100.00
31681;BME280;18281;51.364;9.566;2023-02-13T02:52:06;102180.44;;;2.85;100.00
31681;BME280;18281;51.364;9.566;2023-02-13T02:54:44;102175.22;;;2.80;100.00
31681;BME280;18281;51.364;9.566;2023-02-13T02:57:34;102172.69;;;2.86;100.00
31681;BME280;18281;51.364;9.566;2023-02-13T03:00:21;102171.06;;;2.95;100.00
31681;BME280;18281;51.364;9.566;2023-02-13T03:03:26;102169.09;;;2.75;100.00
31681;BME280;18281;51.364;9.566;2023-02-13T03:06:26;102171.75;;;2.81;100.00
31681;BME280;18281;51.364;9.566;2023-02-13T03:08:57;102163.25;;;2.92;100.00
31681;BME280;18281;51.364;9.566;2023-02-13T03:11:45;102162.13;;;2.72;100.00
31681;BME280;18281;51.364;9.566;2023-02-13T03:14:31;102167.31;;;2.71;100.00
31681;BME280;18281;51.364;9.566;2023-02-13T03:16:57;102166.47;;;2.72;100.00
31681;BME280;18281;51.364;9.566;2023-02-13T03:20:06;102163.03;;;2.73;100.00
31681;BME280;18281;51.364;9.566;2023-02-13T03:23:33;102168.97;;;2.67;100.00
31681;BME280;18281;51.364;9.566;2023-02-13T03:26:19;102167.31;;;2.71;100.00
31681;BME280;18281;51.364;9.566;2023-02-13T03:29:06;102164.75;;;2.74;100.00
31681;BME280;18281;51.364;9.566;2023-02-13T03:34:31;102159.44;;;2.65;100.00
31681;BME280;18281;51.364;9.566;2023-02-13T03:37:23;102164.59;;;2.62;100.00
31681;BME280;18281;51.364;9.566;2023-02-13T03:40:17;102162.16;;;2.74;100.00
31681;BME280;18281;51.364;9.566;2023-02-13T03:42:54;102164.75;;;2.74;100.00
31681;BME280;18281;51.364;9.566;2023-02-13T03:45:32;102156.91;;;2.68;100.00
31681;BME280;18281;51.364;9.566;2023-02-13T03:48:23;102162.81;;;2.58;100.00
31681;BME280;18281;51.364;9.566;2023-02-13T03:51:10;102156.94;;;2.71;100.00
31681;BME280;18281;51.364;9.566;2023-02-13T03:53:39;102164.59;;;2.62;100.00
31681;BME280;18281;51.364;9.566;2023-02-13T03:56:07;102159.53;;;2.72;100.00
31681;BME280;18281;51.364;9.566;2023-02-13T03:58:54;102166.47;;;2.72;100.00
31681;BME280;18281;51.364;9.566;2023-02-13T04:01:43;102174.16;;;2.66;100.00
31681;BME280;18281;51.364;9.566;2023-02-13T04:04:46;102171.69;;;2.75;100.00
31681;BME280;18281;51.364;9.566;2023-02-13T04:07:16;102174.88;;;2.54;100.00
31681;BME280;18281;51.364;9.566;2023-02-13T04:09:54;102177.47;;;2.54;100.00
31681;BME280;18281;51.364;9.566;2023-02-13T04:15:18;102178.28;;;2.50;100.00
31681;BME280;18281;51.364;9.566;2023-02-13T04:17:54;102168.97;;;2.67;100.00
31681;BME280;18281;51.364;9.566;2023-02-13T04:20:21;102169.03;;;2.69;100.00
31681;BME280;18281;51.364;9.566;2023-02-13T04:22:47;102171.41;;;2.50;100.00
31681;BME280;18281;51.364;9.566;2023-02-13T04:25:14;102170.59;;;2.58;100.00
31681;BME280;18281;51.364;9.566;2023-02-13T04:27:41;102177.47;;;2.54;100.00
31681;BME280;18281;51.364;9.566;2023-02-13T04:30:07;102168.72;;;2.44;100.00
31681;BME280;18281;51.364;9.566;2023-02-13T04:32:33;102173.00;;;2.42;100.00
31681;BME280;18281;51.364;9.566;2023-02-13T04:34:59;102173.19;;;2.58;100.00
31681;BME280;18281;51.364;9.566;2023-02-13T04:37:24;102178.50;;;2.65;100.00
31681;BME280;18281;51.364;9.566;2023-02-13T04:39:49;102168.91;;;2.60;100.00
31681;BME280;18281;51.364;9.566;2023-02-13T04:42:15;102168.81;;;2.53;100.00
31681;BME280;18281;51.364;9.566;2023-02-13T04:44:40;102160.97;;;2.47;100.00
31681;BME280;18281;51.364;9.566;2023-02-13T04:47:05;102167.91;;;2.51;100.00
31681;BME280;18281;51.364;9.566;2023-02-13T04:49:31;102166.19;;;2.50;100.00
31681;BME280;18281;51.364;9.566;2023-02-13T04:51:56;102165.19;;;2.39;100.00
31681;BME280;18281;51.364;9.566;2023-02-13T04:54:21;102165.44;;;2.61;100.00
31681;BME280;18281;51.364;9.566;2023-02-13T04:56:46;102159.50;;;2.69;100.00
31681;BME280;18281;51.364;9.566;2023-02-13T04:59:12;102163.56;;;2.47;100.00
31681;BME280;18281;51.364;9.566;2023-02-13T05:01:37;102163.50;;;2.41;100.00
31681;BME280;18281;51.364;9.566;2023-02-13T05:04:03;102157.56;;;2.51;100.00
31681;BME280;18281;51.364;9.566;2023-02-13T05:06:28;102157.66;;;2.59;100.00
31681;BME280;18281;51.364;9.566;2023-02-13T05:08:53;102161.06;;;2.55;100.00
31681;BME280;18281;51.364;9.566;2023-02-13T05:11:19;102160.13;;;2.51;100.00
31681;BME280;18281;51.364;9.566;2023-02-13T05:13:44;102163.63;;;2.53;100.00
31681;BME280;18281;51.364;9.566;2023-02-13T05:16:09;102161.78;;;2.43;100.00
31681;BME280;18281;51.364;9.566;2023-02-13T05:18:35;102168.72;;;2.47;100.00
31681;BME280;18281;51.364;9.566;2023-02-13T05:21:00;102162.69;;;2.47;100.00
31681;BME280;18281;51.364;9.566;2023-02-13T05:23:44;102159.16;;;2.42;100.00
31681;BME280;18281;51.364;9.566;2023-02-13T05:26:10;102163.53;;;2.44;100.00
31681;BME280;18281;51.364;9.566;2023-02-13T05:28:35;102165.19;;;2.39;100.00
31681;BME280;18281;51.364;9.566;2023-02-13T05:31:19;102163.38;;;2.32;100.00
31681;BME280;18281;51.364;9.566;2023-02-13T05:33:44;102168.44;;;2.26;100.00
31681;BME280;18281;51.364;9.566;2023-02-13T05:36:09;102161.75;;;2.40;100.00
31681;BME280;18281;51.364;9.566;2023-02-13T05:38:35;102164.22;;;2.31;100.00
31681;BME280;18281;51.364;9.566;2023-02-13T05:41:00;102156.53;;;2.37;100.00
31681;BME280;18281;51.364;9.566;2023-02-13T05:43:27;102159.19;;;2.43;100.00
31681;BME280;18281;51.364;9.566;2023-02-13T05:46:03;102156.53;;;2.37;100.00
31681;BME280;18281;51.364;9.566;2023-02-13T05:48:29;102150.50;;;2.40;100.00
31681;BME280;18281;51.364;9.566;2023-02-13T05:50:55;102144.38;;;2.33;100.00
31681;BME280;18281;51.364;9.566;2023-02-13T05:53:20;102148.88;;;2.48;100.00
31681;BME280;18281;51.364;9.566;2023-02-13T05:55:46;102157.50;;;2.45;100.00
31681;BME280;18281;51.364;9.566;2023-02-13T05:58:11;102146.22;;;2.45;100.00
31681;BME280;18281;51.364;9.566;2023-02-13T06:00:36;102149.56;;;2.33;100.00
31681;BME280;18281;51.364;9.566;2023-02-13T06:03:02;102158.28;;;2.40;100.00
31681;BME280;18281;51.364;9.566;2023-02-13T06:05:27;102152.28;;;2.44;100.00
31681;BME280;18281;51.364;9.566;2023-02-13T06:07:52;102151.38;;;2.40;100.00
31681;BME280;18281;51.364;9.566;2023-02-13T06:10:18;102150.53;;;2.43;100.00
31681;BME280;18281;51.364;9.566;2023-02-13T06:12:43;102156.31;;;2.23;100.00
31681;BME280;18281;51.364;9.566;2023-02-13T06:15:08;102155.59;;;2.33;100.00
31681;BME280;18281;51.364;9.566;2023-02-13T06:17:34;102153.88;;;2.34;100.00
31681;BME280;18281;51.364;9.566;2023-02-13T06:19:59;102158.19;;;2.32;100.00
31681;BME280;18281;51.364;9.566;2023-02-13T06:22:24;102158.44;;;2.50;100.00
31681;BME280;18281;51.364;9.566;2023-02-13T06:24:50;102154.13;;;2.52;100.00
31681;BME280;18281;51.364;9.566;2023-02-13T06:27:15;102155.13;;;2.64;100.00
31681;BME280;18281;51.364;9.566;2023-02-13T06:29:40;102155.13;;;2.64;100.00
31681;BME280;18281;51.364;9.566;2023-02-13T06:32:06;102160.91;;;2.41;100.00
31681;BME280;18281;51.364;9.566;2023-02-13T06:34:31;102163.50;;;2.41;100.00
31681;BME280;18281;51.364;9.566;2023-02-13T06:36:56;102166.16;;;2.47;100.00
31681;BME280;18281;51.364;9.566;2023-02-13T06:39:21;102170.47;;;2.45;100.00
31681;BME280;18281;51.364;9.566;2023-02-13T06:41:47;102172.09;;;2.38;100.00
31681;BME280;18281;51.364;9.566;2023-02-13T06:44:12;102176.56;;;2.50;100.00
31681;BME280;18281;51.364;9.566;2023-02-13T06:46:37;102178.34;;;2.54;100.00
31681;BME280;18281;51.364;9.566;2023-02-13T06:49:03;102172.09;;;2.37;100.00
31681;BME280;18281;51.364;9.566;2023-02-13T06:51:28;102180.59;;;2.30;100.00
31681;BME280;18281;51.364;9.566;2023-02-13T06:53:53;102186.66;;;2.29;100.00
31681;BME280;18281;51.364;9.566;2023-02-13T06:56:19;102181.69;;;2.47;100.00
31681;BME280;18281;51.364;9.566;2023-02-13T06:58:44;102195.41;;;2.35;100.00
31681;BME280;18281;51.364;9.566;2023-02-13T07:01:10;102186.13;;;2.54;100.00
31681;BME280;18281;51.364;9.566;2023-02-13T07:03:35;102189.59;;;2.57;100.00
31681;BME280;18281;51.364;9.566;2023-02-13T07:06:01;102193.06;;;2.55;100.00
31681;BME280;18281;51.364;9.566;2023-02-13T07:08:26;102202.38;;;2.40;100.00
31681;BME280;18281;51.364;9.566;2023-02-13T07:10:52;102193.91;;;2.54;100.00
31681;BME280;18281;51.364;9.566;2023-02-13T07:13:17;102195.47;;;2.42;100.00
31681;BME280;18281;51.364;9.566;2023-02-13T07:15:42;102207.50;;;2.38;100.00
31681;BME280;18281;51.364;9.566;2023-02-13T07:18:08;102211.00;;;2.42;100.00
31681;BME280;18281;51.364;9.566;2023-02-13T07:20:33;102213.50;;;2.34;100.00
31681;BME280;18281;51.364;9.566;2023-02-13T07:22:59;102214.50;;;2.42;100.00
31681;BME280;18281;51.364;9.566;2023-02-13T07:25:25;102209.34;;;2.44;100.00
31681;BME280;18281;51.364;9.566;2023-02-13T07:27:51;102217.19;;;2.51;100.00
31681;BME280;18281;51.364;9.566;2023-02-13T07:30:16;102212.75;;;2.40;100.00
31681;BME280;18281;51.364;9.566;2023-02-13T07:32:42;102209.19;;;2.33;100.00
31681;BME280;18281;51.364;9.566;2023-02-13T07:35:07;102211.13;;;2.49;100.00
31681;BME280;18281;51.364;9.566;2023-02-13T07:37:32;102216.31;;;2.48;100.00
31681;BME280;18281;51.364;9.566;2023-02-13T07:39:58;102219.59;;;2.36;100.00
31681;BME280;18281;51.364;9.566;2023-02-13T07:42:23;102216.06;;;2.31;100.00
31681;BME280;18281;51.364;9.566;2023-02-13T07:44:48;102227.47;;;2.44;100.00
31681;BME280;18281;51.364;9.566;2023-02-13T07:47:14;102214.59;;;2.50;100.00
31681;BME280;18281;51.364;9.566;2023-02-13T07:49:39;102211.97;;;2.48;100.00
31681;BME280;18281;51.364;9.566;2023-02-13T07:52:05;102213.63;;;2.42;100.00
31681;BME280;18281;51.364;9.566;2023-02-13T07:54:31;102216.28;;;2.46;100.00
31681;BME280;18281;51.364;9.566;2023-02-13T07:56:57;102214.56;;;2.47;100.00
31681;BME280;18281;51.364;9.566;2023-02-13T07:59:22;102214.53;;;2.45;100.00
31681;BME280;18281;51.364;9.566;2023-02-13T08:01:48;102213.59;;;2.40;100.00
31681;BME280;18281;51.364;9.566;2023-02-13T08:04:13;102210.03;;;2.32;100.00
31681;BME280;18281;51.364;9.566;2023-02-13T08:06:39;102210.97;;;2.37;100.00
31681;BME280;18281;51.364;9.566;2023-02-13T08:09:05;102211.16;;;2.51;100.00
31681;BME280;18281;51.364;9.566;2023-02-13T08:11:49;102209.41;;;2.51;100.00
31681;BME280;18281;51.364;9.566;2023-02-13T08:14:21;102205.00;;;2.44;100.00
31681;BME280;18281;51.364;9.566;2023-02-13T08:16:46;102214.66;;;2.53;100.00
31681;BME280;18281;51.364;9.566;2023-02-13T08:19:12;102208.47;;;2.45;100.00
31681;BME280;18281;51.364;9.566;2023-02-13T08:21:37;102205.81;;;2.40;100.00
31681;BME280;18281;51.364;9.566;2023-02-13T08:24:05;102208.63;;;2.55;100.00
31681;BME280;18281;51.364;9.566;2023-02-13T08:26:30;102211.16;;;2.51;100.00
31681;BME280;18281;51.364;9.566;2023-02-13T08:28:56;102217.38;;;2.62;100.00
31681;BME280;18281;51.364;9.566;2023-02-13T08:31:21;102218.16;;;2.58;100.00
31681;BME280;18281;51.364;9.566;2023-02-13T08:33:46;102206.09;;;2.60;100.00
31681;BME280;18281;51.364;9.566;2023-02-13T08:36:12;102205.25;;;2.61;100.00
31681;BME280;18281;51.364;9.566;2023-02-13T08:38:37;102212.00;;;2.50;100.00
31681;BME280;18281;51.364;9.566;2023-02-13T08:41:02;102205.16;;;2.55;100.00
31681;BME280;18281;51.364;9.566;2023-02-13T08:43:28;102193.97;;;2.61;100.00
31681;BME280;18281;51.364;9.566;2023-02-13T08:45:57;102198.31;;;2.62;100.00
31681;BME280;18281;51.364;9.566;2023-02-13T08:48:22;102196.75;;;2.73;100.00
31681;BME280;18281;51.364;9.566;2023-02-13T08:50:47;102197.66;;;2.78;100.00
31681;BME280;18281;51.364;9.566;2023-02-13T08:53:13;102205.31;;;2.67;100.00
31681;BME280;18281;51.364;9.566;2023-02-13T08:55:38;102207.97;;;2.70;100.00
31681;BME280;18281;51.364;9.566;2023-02-13T08:58:04;102204.59;;;2.79;100.00
31681;BME280;18281;51.364;9.566;2023-02-13T09:00:30;102209.78;;;2.81;100.00
31681;BME280;18281;51.364;9.566;2023-02-13T09:02:59;102204.69;;;2.87;100.00
31681;BME280;18281;51.364;9.566;2023-02-13T09:05:26;102207.34;;;2.92;100.00
31681;BME280;18281;51.364;9.566;2023-02-13T09:07:51;102210.81;;;2.92;100.00
31681;BME280;18281;51.364;9.566;2023-02-13T09:10:17;102206.38;;;2.85;100.00
31681;BME280;18281;51.364;9.566;2023-02-13T09:12:42;102206.53;;;2.97;100.00
31681;BME280;18281;51.364;9.566;2023-02-13T09:15:08;102209.13;;;2.97;100.00
31681;BME280;18281;51.364;9.566;2023-02-13T09:17:33;102207.44;;;3.01;100.00
31681;BME280;18281;51.364;9.566;2023-02-13T09:19:59;102195.25;;;2.94;100.00
31681;BME280;18281;51.364;9.566;2023-02-13T09:22:24;102208.34;;;3.03;100.00
31681;BME280;18281;51.364;9.566;2023-02-13T09:24:49;102208.13;;;2.84;100.00
31681;BME280;18281;51.364;9.566;2023-02-13T09:27:14;102210.00;;;2.98;100.00
31681;BME280;18281;51.364;9.566;2023-02-13T09:29:40;102212.72;;;3.10;100.00
31681;BME280;18281;51.364;9.566;2023-02-13T09:32:05;102210.00;;;2.99;100.00
31681;BME280;18281;51.364;9.566;2023-02-13T09:34:31;102204.91;;;3.07;100.00
31681;BME280;18281;51.364;9.566;2023-02-13T09:36:56;102209.91;;;2.90;100.00
31681;BME280;18281;51.364;9.566;2023-02-13T09:39:21;102212.63;;;3.01;100.00
31681;BME280;18281;51.364;9.566;2023-02-13T09:41:48;102208.66;;;3.34;100.00
31681;BME280;18281;51.364;9.566;2023-02-13T09:44:35;102200.88;;;3.35;100.00
31681;BME280;18281;51.364;9.566;2023-02-13T09:49:44;102204.50;;;3.45;100.00
31681;BME280;18281;51.364;9.566;2023-02-13T09:52:10;102200.06;;;3.39;100.00
31681;BME280;18281;51.364;9.566;2023-02-13T09:54:36;102202.09;;;3.67;100.00
31681;BME280;18281;51.364;9.566;2023-02-13T10:05:47;102199.81;;;4.10;100.00
31681;BME280;18281;51.364;9.566;2023-02-13T10:16:44;102205.22;;;4.47;100.00
31681;BME280;18281;51.364;9.566;2023-02-13T10:19:28;102196.63;;;4.64;100.00
31681;BME280;18281;51.364;9.566;2023-02-13T10:21:58;102191.47;;;4.76;100.00
31681;BME280;18281;51.364;9.566;2023-02-13T10:24:37;102188.91;;;4.82;100.00
31681;BME280;18281;51.364;9.566;2023-02-13T10:27:15;102194.16;;;5.04;100.00
31681;BME280;18281;51.364;9.566;2023-02-13T10:29:47;102185.53;;;5.25;100.00
31681;BME280;18281;51.364;9.566;2023-02-13T10:32:53;102176.06;;;5.39;100.00
31681;BME280;18281;51.364;9.566;2023-02-13T10:35:36;102178.66;;;5.41;100.00
31681;BME280;18281;51.364;9.566;2023-02-13T10:38:13;102171.72;;;5.57;100.00
31681;BME280;18281;51.364;9.566;2023-02-13T10:40:47;102167.34;;;5.71;100.00
31681;BME280;18281;51.364;9.566;2023-02-13T10:43:19;102169.97;;;5.82;100.00
31681;BME280;18281;51.364;9.566;2023-02-13T10:51:37;102167.34;;;5.88;100.00
31681;BME280;18281;51.364;9.566;2023-02-13T11:02:32;102149.81;;;6.45;100.00
31681;BME280;18281;51.364;9.566;2023-02-13T11:07:30;102145.31;;;6.74;100.00
31681;BME280;18281;51.364;9.566;2023-02-13T11:10:00;102133.97;;;6.83;100.00
31681;BME280;18281;51.364;9.566;2023-02-13T11:12:30;102132.16;;;6.93;100.00
31681;BME280;18281;51.364;9.566;2023-02-13T11:15:07;102137.53;;;6.67;100.00
31681;BME280;18281;51.364;9.566;2023-02-13T11:17:43;102139.13;;;7.02;100.00
31681;BME280;18281;51.364;9.566;2023-02-13T11:20:36;102131.25;;;7.03;100.00
31681;BME280;18281;51.364;9.566;2023-02-13T11:25:56;102130.28;;;7.18;100.00
31681;BME280;18281;51.364;9.566;2023-02-13T11:28:24;102119.66;;;7.40;100.00
31681;BME280;18281;51.364;9.566;2023-02-13T11:30:51;102122.19;;;7.49;100.00
31681;BME280;18281;51.364;9.566;2023-02-13T11:35:43;102125.59;;;7.59;100.00
31681;BME280;18281;51.364;9.566;2023-02-13T11:40:44;102121.13;;;7.72;100.00
31681;BME280;18281;51.364;9.566;2023-02-13T11:46:24;102114.72;;;8.01;100.00
31681;BME280;18281;51.364;9.566;2023-02-13T11:49:11;102117.16;;;8.19;100.00
31681;BME280;18281;51.364;9.566;2023-02-13T11:51:44;102108.38;;;8.23;100.00
31681;BME280;18281;51.364;9.566;2023-02-13T11:54:29;102109.41;;;8.07;100.00
31681;BME280;18281;51.364;9.566;2023-02-13T11:59:54;102105.41;;;8.54;100.00
31681;BME280;18281;51.364;9.566;2023-02-13T12:02:22;102097.66;;;8.45;100.00
31681;BME280;18281;51.364;9.566;2023-02-13T12:04:54;102101.31;;;8.29;100.00
31681;BME280;18281;51.364;9.566;2023-02-13T12:07:28;102104.66;;;8.43;100.00
31681;BME280;18281;51.364;9.566;2023-02-13T12:09:59;102101.16;;;8.44;100.00
31681;BME280;18281;51.364;9.566;2023-02-13T12:12:34;102093.13;;;8.56;100.00
31681;BME280;18281;51.364;9.566;2023-02-13T12:15:14;102091.28;;;8.66;100.00
31681;BME280;18281;51.364;9.566;2023-02-13T12:17:42;102089.13;;;8.93;100.00
31681;BME280;18281;51.364;9.566;2023-02-13T12:20:14;102078.75;;;8.87;100.00
31681;BME280;18281;51.364;9.566;2023-02-13T12:23:08;102077.91;;;8.83;100.00
31681;BME280;18281;51.364;9.566;2023-02-13T12:26:06;102075.13;;;8.94;100.00
31681;BME280;18281;51.364;9.566;2023-02-13T12:31:30;102056.78;;;9.94;100.00
31681;BME280;18281;51.364;9.566;2023-02-13T12:37:03;102056.56;;;10.05;100.00
31681;BME280;18281;51.364;9.566;2023-02-13T12:40:02;102048.38;;;10.20;100.00
31681;BME280;18281;51.364;9.566;2023-02-13T12:42:49;102050.38;;;10.48;100.00
31681;BME280;18281;51.364;9.566;2023-02-13T12:45:36;102039.47;;;10.67;100.00
31681;BME280;18281;51.364;9.566;2023-02-13T12:51:09;102033.13;;;10.38;100.00
31681;BME280;18281;51.364;9.566;2023-02-13T13:04:51;102019.09;;;9.98;100.00
31681;BME280;18281;51.364;9.566;2023-02-13T13:07:39;102015.63;;;9.98;100.00
31681;BME280;18281;51.364;9.566;2023-02-13T13:10:25;102016.44;;;10.00;100.00
31681;BME280;18281;51.364;9.566;2023-02-13T13:15:47;102012.16;;;9.96;100.00
31681;BME280;18281;51.364;9.566;2023-02-13T13:18:26;102007.66;;;10.01;100.00
31681;BME280;18281;51.364;9.566;2023-02-13T13:21:08;102018.34;;;9.91;100.00
31681;BME280;18281;51.364;9.566;2023-02-13T13:26:33;102007.13;;;10.25;100.00
31681;BME280;18281;51.364;9.566;2023-02-13T13:29:04;102006.97;;;10.33;100.00
31681;BME280;18281;51.364;9.566;2023-02-13T13:31:33;102004.28;;;10.35;100.00
31681;BME280;18281;51.364;9.566;2023-02-13T13:34:04;102005.69;;;10.50;100.00
31681;BME280;18281;51.364;9.566;2023-02-13T13:36:42;102004.19;;;10.39;100.00
31681;BME280;18281;51.364;9.566;2023-02-13T13:39:24;101991.22;;;9.93;100.00
31681;BME280;18281;51.364;9.566;2023-02-13T13:50:27;101987.28;;;9.71;100.00
31681;BME280;18281;51.364;9.566;2023-02-13T13:53:07;101983.63;;;10.21;100.00
31681;BME280;18281;51.364;9.566;2023-02-13T13:58:23;101984.78;;;10.47;100.00
31681;BME280;18281;51.364;9.566;2023-02-13T14:03:41;101981.44;;;10.01;100.00
31681;BME280;18281;51.364;9.566;2023-02-13T14:06:13;101982.00;;;9.73;97.00
31681;BME280;18281;51.364;9.566;2023-02-13T14:11:05;101979.59;;;9.61;100.00
31681;BME280;18281;51.364;9.566;2023-02-13T14:13:37;101983.03;;;9.63;100.00
31681;BME280;18281;51.364;9.566;2023-02-13T14:16:10;101987.19;;;9.28;100.00
31681;BME280;18281;51.364;9.566;2023-02-13T14:18:36;101977.78;;;9.19;100.00
31681;BME280;18281;51.364;9.566;2023-02-13T14:21:03;101975.81;;;9.30;100.00
31681;BME280;18281;51.364;9.566;2023-02-13T14:28:37;101977.31;;;8.95;100.00
31681;BME280;18281;51.364;9.566;2023-02-13T14:31:13;101975.22;;;9.14;100.00
31681;BME280;18281;51.364;9.566;2023-02-13T14:34:03;101971.03;;;9.05;100.00
31681;BME280;18281;51.364;9.566;2023-02-13T14:36:33;101978.28;;;8.89;100.00
31681;BME280;18281;51.364;9.566;2023-02-13T14:39:03;101966.25;;;8.78;100.00
31681;BME280;18281;51.364;9.566;2023-02-13T14:44:36;101962.41;;;8.99;100.00
31681;BME280;18281;51.364;9.566;2023-02-13T14:47:11;101965.72;;;9.08;100.00
31681;BME280;18281;51.364;9.566;2023-02-13T14:49:39;101960.66;;;8.98;100.00
31681;BME280;18281;51.364;9.566;2023-02-13T14:52:07;101954.75;;;8.86;100.00
31681;BME280;18281;51.364;9.566;2023-02-13T14:54:49;101952.03;;;8.93;100.00
31681;BME280;18281;51.364;9.566;2023-02-13T14:57:16;101945.31;;;8.76;100.00
31681;BME280;18281;51.364;9.566;2023-02-13T14:59:46;101949.03;;;8.63;100.00
31681;BME280;18281;51.364;9.566;2023-02-13T15:02:30;101946.47;;;8.58;100.00
31681;BME280;18281;51.364;9.566;2023-02-13T15:05:01;101950.28;;;8.38;100.00
31681;BME280;18281;51.364;9.566;2023-02-13T15:07:36;101947.41;;;8.57;100.00
31681;BME280;18281;51.364;9.566;2023-02-13T15:12:44;101952.13;;;9.35;100.00
31681;BME280;18281;51.364;9.566;2023-02-13T15:15:24;101953.53;;;9.53;100.00